Chicago, IL (60625)

1:38 AM CDT on October 01, 2014 (GMT -0500)
North Park University | Change Station
CLOSE
Current Station
Personal Weather Station
Location: Chicago, IL
Elevation: 617 ft
Nearby Weather Stations

Elev 617 ft 41.97 °N, 87.71 °W | Updated 7 minutes ago

Overcast
Overcast
55.9 °F
Feels Like 55.9 °F
N
2.0
Wind Variable Wind from East
Gusts 11.0 mph

Today
High -- | Low -- °F
--% Chance of Precip.
Yesterday
High -- | Low -- °F
Precip. -- in
6:47 AM 6:32 PM
Waxing Crescent, 44% visible
Pressure 30.01 in
Visibility 10.0 miles
Clouds Overcast 2200 ft
Dew Point 49 °F
Humidity 78%
Rainfall 0.00 in
Snow Depth Not available.
UV 0.0 out of 12
Pollen 2.90 out of 12
Ozone Good
PM2.5 Good
Flu Activity Not available.
METAR KORD 010551Z 09007KT 10SM OVC022 13/08 A3001 RMK AO2 SLP162 60000 T01280078 10128 20111 401440083 58005 $

More Conditions Fewer Conditions

Pressure 30.01 in
Visibility 10.0 miles
Clouds Overcast 2200 ft
Dew Point 49 °F
Humidity 78%
Rainfall 0.00 in
Snow Depth Not available.
UV 0.0 out of 12
Pollen 2.90 out of 12
Ozone Good
PM2.5 Good
Flu Activity Not available.
METAR KORD 010551Z 09007KT 10SM OVC022 13/08 A3001 RMK AO2 SLP162 60000 T01280078 10128 20111 401440083 58005 $

More Conditions Fewer Conditions

10-Day Weather Forecast

Almanac

Astronomy

Oct. 01, 2014 Rise Set
Actual Time 6:47 AM CDT 6:32 PM CDT
Civil Twilight 6:19 AM CDT 7:00 PM CDT
Nautical Twilight 5:47 AM CDT 7:32 PM CDT
Astronomical Twilight 5:14 AM CDT 8:05 PM CDT
Moon 1:52 PM CDT No Moon Set
Length of Visible Light 12h 40m
Length of Day
11h 44m
Tomorrow will be 2m 48s shorter.
Waxing Crescent, 44% of the Moon is Illuminated
Today
Waxing Crescent
Oct 1
First Quarter
Oct 8
Full
Oct 15
Last Quarter
Oct 23
New

Today's Extremes

State Highs State Lows

Community

WunderPhotos

Upload Photos

1,757,886 photos uploaded!

Nearby

Air Quality

  Air Quality AQ Index Pollutant
Yesterday Good
PM2.5
Yesterday Good
OZONE
Current Good
PM2.5
Current Good
OZONE
Wednesday Good
PM2.5
Thursday Moderate
PM2.5
Friday Good
PM2.5
Saturday Good
PM2.5

Snow Depth

Station Depth Elevation
No new snow has been reported.

Earthquake Activity

City Distance Mag. Time & Date
No recent earthquake activity has been reported nearby.
Minimum magnitude displayed is 2.5.

Coastal Water Temperatures

Place Temperature
No Stations Reporting

Nearby Weather Stations